createdAt,value
2018-05-15T00:01:30.359Z,69.12
2018-05-15T00:03:57.975Z,69.23
2018-05-15T00:06:25.686Z,69.25
2018-05-15T00:08:53.298Z,69.29
2018-05-15T00:11:21.706Z,69.42
2018-05-15T00:13:49.387Z,69.60
2018-05-15T00:16:17.031Z,69.82
2018-05-15T00:18:44.710Z,69.95
2018-05-15T00:21:12.374Z,70.09
2018-05-15T00:23:40.036Z,70.21
2018-05-15T00:26:07.679Z,70.14
2018-05-15T00:28:35.297Z,70.13
2018-05-15T00:31:02.935Z,70.03
2018-05-15T00:33:30.548Z,69.99
2018-05-15T00:35:58.247Z,70.08
2018-05-15T00:38:25.862Z,70.07
2018-05-15T00:40:53.503Z,70.10
2018-05-15T00:43:21.124Z,70.22
2018-05-15T00:45:48.779Z,70.30
2018-05-15T00:48:16.403Z,70.42
2018-05-15T00:50:44.019Z,70.42
2018-05-15T00:53:11.659Z,70.57
2018-05-15T00:55:44.996Z,70.69
2018-05-15T00:58:12.638Z,70.90
2018-05-15T01:00:40.295Z,71.06
2018-05-15T01:03:07.958Z,71.23
2018-05-15T01:05:35.633Z,71.31
2018-05-15T01:08:03.385Z,71.37
2018-05-15T01:10:31.051Z,71.29
2018-05-15T01:12:58.691Z,71.56
2018-05-15T01:15:26.307Z,71.88
2018-05-15T01:17:53.958Z,71.93
2018-05-15T01:20:21.574Z,72.06
2018-05-15T01:22:49.211Z,72.12
2018-05-15T01:25:16.918Z,72.20
2018-05-15T01:27:44.555Z,72.21
2018-05-15T01:30:12.174Z,72.21
2018-05-15T01:32:39.910Z,72.34
2018-05-15T01:35:07.575Z,72.41
2018-05-15T01:37:35.214Z,72.53
2018-05-15T01:40:02.845Z,72.58
2018-05-15T01:42:30.563Z,72.78
2018-05-15T01:44:58.178Z,72.81
2018-05-15T01:47:25.886Z,72.93
2018-05-15T01:49:53.502Z,73.10
2018-05-15T01:52:21.210Z,73.26
2018-05-15T01:54:48.823Z,73.27
2018-05-15T01:57:16.530Z,73.26
2018-05-15T01:59:44.142Z,73.28
2018-05-15T02:02:11.795Z,73.41
2018-05-15T02:04:39.410Z,73.38
2018-05-15T02:07:07.083Z,73.41
2018-05-15T02:09:34.723Z,73.44
2018-05-15T02:12:02.338Z,73.49
2018-05-15T02:14:29.974Z,73.54
2018-05-15T02:16:57.630Z,73.53
2018-05-15T02:19:25.270Z,73.69
2018-05-15T02:21:52.955Z,73.78
2018-05-15T02:24:20.620Z,73.90
2018-05-15T02:26:48.236Z,73.94
2018-05-15T02:29:15.874Z,73.97
2018-05-15T02:31:43.492Z,74.00
2018-05-15T02:34:11.163Z,74.10
2018-05-15T02:36:38.826Z,74.24
2018-05-15T02:39:06.584Z,74.33
2018-05-15T02:41:34.206Z,74.61
2018-05-15T02:44:01.850Z,74.76
2018-05-15T02:46:29.469Z,75.07
2018-05-15T02:48:57.146Z,75.23
2018-05-15T02:51:24.771Z,75.39
2018-05-15T02:53:52.467Z,75.54
2018-05-15T02:56:20.127Z,75.66
2018-05-15T02:58:47.772Z,75.74
2018-05-15T03:01:15.387Z,75.89
2018-05-15T03:03:43.023Z,75.94
2018-05-15T03:06:10.638Z,76.05
2018-05-15T03:08:38.290Z,76.23
2018-05-15T03:11:05.907Z,76.29
2018-05-15T03:13:33.550Z,76.45
2018-05-15T03:16:01.223Z,76.55
2018-05-15T03:18:28.838Z,76.60
2018-05-15T03:20:56.478Z,76.67
2018-05-15T03:23:24.092Z,76.67
2018-05-15T03:25:51.740Z,76.59
2018-05-15T03:28:19.431Z,76.56
2018-05-15T03:30:47.075Z,76.51
2018-05-15T03:33:14.754Z,76.56
2018-05-15T03:35:42.422Z,76.62
2018-05-15T03:38:10.035Z,76.60
2018-05-15T03:40:37.675Z,76.60
2018-05-15T03:43:05.291Z,76.61
2018-05-15T03:45:32.931Z,76.57
2018-05-15T03:48:00.551Z,76.57
2018-05-15T03:50:28.187Z,76.66
2018-05-15T03:52:55.852Z,76.61
2018-05-15T03:55:23.515Z,76.56
2018-05-15T03:57:51.179Z,76.60
2018-05-15T04:00:30.438Z,76.52
2018-05-15T04:03:09.951Z,76.59
2018-05-15T04:05:49.390Z,76.58
2018-05-15T04:08:17.006Z,76.41
2018-05-15T04:10:44.648Z,76.40
2018-05-15T04:13:14.015Z,76.31
2018-05-15T04:15:41.668Z,76.07
2018-05-15T04:18:09.291Z,75.76
2018-05-15T04:20:37.006Z,75.50
2018-05-15T04:23:04.667Z,75.03
2018-05-15T04:25:32.307Z,74.45
2018-05-15T04:28:00.083Z,73.64
2018-05-15T04:30:27.755Z,72.99
2018-05-15T04:32:55.374Z,72.42
2018-05-15T04:35:23.048Z,71.83
2018-05-15T04:37:50.742Z,71.37
2018-05-15T04:40:18.406Z,71.01
2018-05-15T04:42:46.046Z,70.97
2018-05-15T04:45:13.674Z,71.01
2018-05-15T04:47:41.385Z,71.22
2018-05-15T04:50:08.999Z,71.14
2018-05-15T04:52:36.639Z,71.35
2018-05-15T04:55:04.259Z,71.47
2018-05-15T04:57:31.902Z,71.61
2018-05-15T04:59:59.519Z,71.60
2018-05-15T05:02:27.166Z,71.56
2018-05-15T05:04:54.790Z,71.44
2018-05-15T05:07:22.431Z,71.11
2018-05-15T05:09:50.046Z,71.15
2018-05-15T05:12:17.719Z,71.04
2018-05-15T05:14:45.335Z,71.09
2018-05-15T05:17:13.029Z,71.12
2018-05-15T05:19:40.710Z,71.02
2018-05-15T05:22:08.462Z,70.87
2018-05-15T05:24:36.078Z,70.46
2018-05-15T05:27:03.732Z,70.13
2018-05-15T05:29:31.359Z,69.79
2018-05-15T05:31:59.005Z,69.59
2018-05-15T05:34:26.679Z,69.53
2018-05-15T05:36:54.315Z,69.25
2018-05-15T05:39:21.930Z,69.06
2018-05-15T05:41:49.567Z,69.35
2018-05-15T05:44:17.222Z,69.44
2018-05-15T05:46:44.883Z,69.63
2018-05-15T05:49:12.557Z,69.80
2018-05-15T05:51:40.210Z,69.80
2018-05-15T05:54:07.871Z,69.58
2018-05-15T05:56:35.628Z,69.38
2018-05-15T05:59:03.299Z,69.36
2018-05-15T06:01:30.918Z,69.03
2018-05-15T06:03:58.558Z,68.93
2018-05-15T06:06:26.171Z,68.95
2018-05-15T06:08:53.847Z,68.91
2018-05-15T06:11:21.511Z,69.04
2018-05-15T06:13:49.151Z,69.09
2018-05-15T06:16:16.766Z,69.01
2018-05-15T06:18:44.407Z,68.91
2018-05-15T06:21:12.022Z,68.92
2018-05-15T06:23:39.670Z,68.89
2018-05-15T06:26:07.382Z,68.52
2018-05-15T06:28:35.019Z,68.08
2018-05-15T06:31:02.635Z,67.98
2018-05-15T06:33:30.270Z,67.92
2018-05-15T06:35:57.931Z,67.68
2018-05-15T06:38:25.596Z,67.26
2018-05-15T06:40:53.259Z,66.45
2018-05-15T06:43:20.968Z,65.56
2018-05-15T06:45:48.547Z,65.44
2018-05-15T06:48:16.337Z,65.60
2018-05-15T06:50:43.959Z,65.58
2018-05-15T06:53:11.599Z,64.17
2018-05-15T06:55:39.214Z,62.69
2018-05-15T06:58:06.880Z,61.83
2018-05-15T07:00:34.559Z,60.87
2018-05-15T07:03:02.217Z,60.06
2018-05-15T07:05:29.878Z,60.00
2018-05-15T07:07:57.495Z,58.83
2018-05-15T07:10:25.136Z,58.58
2018-05-15T07:12:52.770Z,56.88
2018-05-15T07:15:20.406Z,57.60
2018-05-15T07:17:48.184Z,56.66
2018-05-15T07:20:15.823Z,56.63
2018-05-15T07:22:43.448Z,56.13
2018-05-15T07:25:11.089Z,55.58
2018-05-15T07:27:38.703Z,55.49
2018-05-15T07:30:06.336Z,54.37
2018-05-15T07:32:33.948Z,53.71
2018-05-15T07:35:01.575Z,53.46
2018-05-15T07:37:29.222Z,53.72
2018-05-15T07:39:56.951Z,54.16
2018-05-15T07:42:24.611Z,53.55
2018-05-15T07:44:52.274Z,53.44
2018-05-15T07:47:19.887Z,53.75
2018-05-15T07:49:47.603Z,52.51
2018-05-15T07:52:15.263Z,52.26
2018-05-15T07:54:42.927Z,51.79
2018-05-15T07:57:10.591Z,51.56
2018-05-15T07:59:38.237Z,51.03
2018-05-15T08:02:05.972Z,50.49
2018-05-15T08:04:33.679Z,50.62
2018-05-15T08:07:01.295Z,50.33
2018-05-15T08:09:28.942Z,50.60
2018-05-15T08:11:56.565Z,51.30
2018-05-15T08:14:24.226Z,51.34
2018-05-15T08:16:51.867Z,50.31
2018-05-15T08:19:19.550Z,50.35
2018-05-15T08:21:47.219Z,50.56
2018-05-15T08:24:14.836Z,49.96
2018-05-15T08:26:42.535Z,50.10
2018-05-15T08:29:10.203Z,48.20
2018-05-15T08:31:37.838Z,48.59
2018-05-15T08:34:05.447Z,49.82
2018-05-15T08:36:33.079Z,49.59
2018-05-15T08:39:00.843Z,49.15
2018-05-15T08:41:28.480Z,48.25
2018-05-15T08:43:56.098Z,47.76
2018-05-15T08:46:23.732Z,47.70
2018-05-15T08:48:51.778Z,46.76
2018-05-15T08:51:19.419Z,45.50
2018-05-15T08:53:47.130Z,45.60
2018-05-15T08:56:14.763Z,45.60
2018-05-15T08:58:42.374Z,46.09
2018-05-15T09:01:10.002Z,45.97
2018-05-15T09:03:37.680Z,45.86
2018-05-15T09:06:05.350Z,45.42
2018-05-15T09:08:32.963Z,44.36
2018-05-15T09:11:00.600Z,44.77
2018-05-15T09:13:28.330Z,44.44
2018-05-15T09:15:55.966Z,45.03
2018-05-15T09:18:23.653Z,45.73
2018-05-15T09:20:51.319Z,45.07
2018-05-15T09:23:18.930Z,44.75
2018-05-15T09:25:46.644Z,45.01
2018-05-15T09:28:14.256Z,44.99
2018-05-15T09:30:41.966Z,44.02
2018-05-15T09:33:09.603Z,44.29
2018-05-15T09:35:37.286Z,44.82
2018-05-15T09:38:04.955Z,44.30
2018-05-15T09:40:32.618Z,44.40
2018-05-15T09:43:00.256Z,44.27
2018-05-15T09:45:27.890Z,44.45
2018-05-15T09:47:55.523Z,44.18
2018-05-15T09:50:23.131Z,44.39
2018-05-15T09:52:50.774Z,44.77
2018-05-15T09:55:18.391Z,44.61
2018-05-15T09:57:46.027Z,44.31
2018-05-15T10:00:13.648Z,43.99
2018-05-15T10:02:41.375Z,43.94
2018-05-15T10:05:09.039Z,43.73
2018-05-15T10:07:36.716Z,43.85
2018-05-15T10:10:04.354Z,42.80
2018-05-15T10:12:31.990Z,41.28
2018-05-15T10:14:59.610Z,40.35
2018-05-15T10:17:27.346Z,41.03
2018-05-15T10:19:55.033Z,40.99
2018-05-15T10:22:22.663Z,41.30
2018-05-15T10:24:50.298Z,40.56
2018-05-15T10:27:17.998Z,41.42
2018-05-15T10:29:45.635Z,41.04
2018-05-15T10:32:13.331Z,40.46
2018-05-15T10:34:40.988Z,39.22
2018-05-15T10:37:08.602Z,39.27
2018-05-15T10:39:36.305Z,39.80
2018-05-15T10:42:03.915Z,39.36
2018-05-15T10:44:31.634Z,39.51
2018-05-15T10:46:59.243Z,39.82
2018-05-15T10:49:26.962Z,40.14
2018-05-15T10:51:54.622Z,38.75
2018-05-15T10:54:22.257Z,38.67
2018-05-15T10:56:50.045Z,39.43
2018-05-15T10:59:17.678Z,39.32
2018-05-15T11:01:45.290Z,39.48
2018-05-15T11:04:12.927Z,39.73
2018-05-15T11:06:40.599Z,37.48
2018-05-15T11:09:08.879Z,36.24
2018-05-15T11:11:36.546Z,37.20
2018-05-15T11:14:04.186Z,37.39
2018-05-15T11:16:31.799Z,37.51
2018-05-15T11:22:11.631Z,36.50
2018-05-15T11:24:51.276Z,36.69
2018-05-15T11:27:18.936Z,37.05
2018-05-15T11:29:46.604Z,36.60
2018-05-15T11:32:14.211Z,36.99
2018-05-15T11:34:41.843Z,36.80
2018-05-15T11:37:09.456Z,36.95
2018-05-15T11:39:37.147Z,36.60
2018-05-15T11:42:04.778Z,36.38
2018-05-15T11:44:32.391Z,36.71
2018-05-15T11:47:00.135Z,36.83
2018-05-15T11:49:28.437Z,37.27
2018-05-15T11:51:56.158Z,36.62
2018-05-15T11:54:23.057Z,36.14
2018-05-15T11:56:50.691Z,36.25
2018-05-15T11:59:18.302Z,35.68
2018-05-15T12:01:45.958Z,35.71
2018-05-15T12:04:13.570Z,36.40
2018-05-15T12:06:41.203Z,35.38
2018-05-15T12:09:08.905Z,35.53
2018-05-15T12:11:36.466Z,34.64
2018-05-15T12:14:04.078Z,35.05
2018-05-15T12:16:31.778Z,34.44
2018-05-15T12:18:59.391Z,34.44
2018-05-15T12:21:27.031Z,34.79
2018-05-15T12:23:54.763Z,34.45
2018-05-15T12:26:22.431Z,34.09
2018-05-15T12:28:50.043Z,34.20
2018-05-15T12:31:17.758Z,34.61
2018-05-15T12:33:45.359Z,34.78
2018-05-15T12:36:12.986Z,35.31
2018-05-15T12:38:40.599Z,36.10
2018-05-15T12:41:08.299Z,36.46
2018-05-15T12:43:35.906Z,36.84
2018-05-15T12:46:03.570Z,37.11
2018-05-15T12:48:31.328Z,36.80
2018-05-15T12:50:58.945Z,36.51
2018-05-15T12:53:26.574Z,36.97
2018-05-15T12:55:54.187Z,36.15
2018-05-15T12:58:21.818Z,36.23
2018-05-15T13:00:49.426Z,36.40
2018-05-15T13:03:17.067Z,36.08
2018-05-15T13:05:44.776Z,35.97
2018-05-15T13:08:12.491Z,35.60
2018-05-15T13:10:40.105Z,35.44
2018-05-15T13:13:07.742Z,35.50
2018-05-15T13:15:35.582Z,35.38
2018-05-15T13:18:03.220Z,35.72
2018-05-15T13:20:30.903Z,35.66
2018-05-15T13:22:58.532Z,35.21
2018-05-15T13:25:26.147Z,35.97
2018-05-15T13:27:53.779Z,36.00
2018-05-15T13:30:21.386Z,36.50
2018-05-15T13:32:49.015Z,36.50
2018-05-15T13:35:16.681Z,37.26
2018-05-15T13:37:44.321Z,37.28
2018-05-15T13:40:11.994Z,37.05
2018-05-15T13:42:39.623Z,36.76
2018-05-15T13:45:07.323Z,36.74
2018-05-15T13:47:34.959Z,37.13
2018-05-15T13:50:02.571Z,37.22
2018-05-15T13:52:30.405Z,37.19
2018-05-15T13:54:58.011Z,37.66
2018-05-15T13:57:25.666Z,37.58
2018-05-15T13:59:53.278Z,38.18
2018-05-15T14:02:20.891Z,39.39
2018-05-15T14:04:48.519Z,39.58
2018-05-15T14:07:16.131Z,39.65
2018-05-15T14:09:43.762Z,39.19
2018-05-15T14:12:11.375Z,39.21
2018-05-15T14:14:39.064Z,39.80
2018-05-15T14:17:06.730Z,39.94
2018-05-15T14:19:34.395Z,40.04
2018-05-15T14:22:02.010Z,40.48
2018-05-15T14:24:29.647Z,40.86
2018-05-15T14:26:57.279Z,40.84
2018-05-15T14:29:24.933Z,40.66
2018-05-15T14:31:52.602Z,40.67
2018-05-15T14:34:20.271Z,41.01
2018-05-15T14:36:48.023Z,41.01
2018-05-15T14:39:15.654Z,41.35
2018-05-15T14:41:55.032Z,41.70
2018-05-15T14:44:22.775Z,42.43
2018-05-15T14:46:50.394Z,42.80
2018-05-15T14:49:18.119Z,42.81
2018-05-15T14:51:45.735Z,43.18
2018-05-15T14:54:13.449Z,43.97
2018-05-15T14:56:41.059Z,44.10
2018-05-15T14:59:08.711Z,44.22
2018-05-15T15:01:36.426Z,44.50
2018-05-15T15:04:04.087Z,45.03
2018-05-15T15:06:31.723Z,44.93
2018-05-15T15:08:59.525Z,44.75
2018-05-15T15:11:27.187Z,45.09
2018-05-15T15:13:54.796Z,45.56
2018-05-15T15:16:22.432Z,45.90
2018-05-15T15:18:50.046Z,46.33
2018-05-15T15:21:17.686Z,46.57
2018-05-15T15:23:45.379Z,46.74
2018-05-15T15:26:12.950Z,47.19
2018-05-15T15:28:40.559Z,47.85
2018-05-15T15:31:08.199Z,48.18
2018-05-15T15:33:35.830Z,48.97
2018-05-15T15:36:03.467Z,49.76
2018-05-15T15:38:31.163Z,50.47
2018-05-15T15:40:58.799Z,51.34
2018-05-15T15:43:26.419Z,52.12
2018-05-15T15:45:54.150Z,53.27
2018-05-15T15:48:21.767Z,53.30
2018-05-15T15:50:49.414Z,53.69
2018-05-15T15:53:17.039Z,53.66
2018-05-15T15:55:44.704Z,53.39
2018-05-15T15:58:12.318Z,53.70
2018-05-15T16:00:39.994Z,53.06
2018-05-15T16:03:07.687Z,52.94
2018-05-15T16:05:35.326Z,53.37
2018-05-15T16:08:02.959Z,52.96
2018-05-15T16:10:30.571Z,52.47
2018-05-15T16:12:58.211Z,52.31
2018-05-15T16:15:25.894Z,52.92
2018-05-15T16:17:53.575Z,53.90
2018-05-15T16:20:21.179Z,53.28
2018-05-15T16:22:48.850Z,53.36
2018-05-15T16:25:16.456Z,53.41
2018-05-15T16:27:44.106Z,54.18
2018-05-15T16:30:11.723Z,54.40
2018-05-15T16:32:39.386Z,54.00
2018-05-15T16:35:07.003Z,53.93
2018-05-15T16:37:34.704Z,54.08
2018-05-15T16:40:02.295Z,54.25
2018-05-15T16:42:29.979Z,55.02
2018-05-15T16:44:57.644Z,56.16
2018-05-15T16:47:25.291Z,57.13
2018-05-15T16:49:52.936Z,57.38
2018-05-15T16:52:20.622Z,58.08
2018-05-15T16:54:48.291Z,57.98
2018-05-15T16:57:15.956Z,58.01
2018-05-15T16:59:43.615Z,58.52
2018-05-15T17:02:11.279Z,59.26
2018-05-15T17:04:38.899Z,60.45
2018-05-15T17:07:06.534Z,61.51
2018-05-15T17:09:34.166Z,62.18
2018-05-15T17:12:01.828Z,61.80
2018-05-15T17:14:29.672Z,61.99
2018-05-15T17:16:57.455Z,63.10
2018-05-15T17:19:25.119Z,63.04
2018-05-15T17:21:52.738Z,63.48
2018-05-15T17:24:20.452Z,63.85
2018-05-15T17:26:48.072Z,65.09
2018-05-15T17:29:15.718Z,65.45
2018-05-15T17:31:43.330Z,65.59
2018-05-15T17:34:10.971Z,66.22
2018-05-15T17:36:38.583Z,66.43
2018-05-15T17:39:06.223Z,67.18
2018-05-15T17:41:33.838Z,68.08
2018-05-15T17:44:01.476Z,67.91
2018-05-15T17:46:29.099Z,68.47
2018-05-15T17:48:56.735Z,67.83
2018-05-15T17:51:24.354Z,68.52
2018-05-15T17:53:52.082Z,68.46
2018-05-15T17:56:19.699Z,68.52
2018-05-15T17:58:47.338Z,68.21
2018-05-15T18:01:14.951Z,68.34
2018-05-15T18:03:42.630Z,68.51
2018-05-15T18:06:10.242Z,68.41
2018-05-15T18:08:38.036Z,68.51
2018-05-15T18:11:05.611Z,68.93
2018-05-15T18:13:33.251Z,68.94
2018-05-15T18:16:00.867Z,69.11
2018-05-15T18:18:28.503Z,69.58
2018-05-15T18:20:56.121Z,70.38
2018-05-15T18:23:23.832Z,70.31
2018-05-15T18:25:51.449Z,70.49
2018-05-15T18:28:19.155Z,70.73
2018-05-15T18:30:46.771Z,71.33
2018-05-15T18:33:14.397Z,71.77
2018-05-15T18:35:42.143Z,71.79
2018-05-15T18:38:09.812Z,72.12
2018-05-15T18:40:37.453Z,72.69
2018-05-15T18:43:05.074Z,72.56
2018-05-15T18:45:32.715Z,72.83
2018-05-15T18:48:00.351Z,72.58
2018-05-15T18:50:27.995Z,72.44
2018-05-15T18:52:55.611Z,72.63
2018-05-15T18:55:23.250Z,72.59
2018-05-15T18:57:50.867Z,72.54
2018-05-15T19:00:18.516Z,72.73
2018-05-15T19:02:46.223Z,73.18
2018-05-15T19:05:13.887Z,73.01
2018-05-15T19:07:41.555Z,73.06
2018-05-15T19:10:09.306Z,73.17
2018-05-15T19:12:36.918Z,73.36
2018-05-15T19:15:04.563Z,72.80
2018-05-15T19:17:32.180Z,72.66
2018-05-15T19:19:59.860Z,73.08
2018-05-15T19:22:27.527Z,73.19
2018-05-15T19:24:55.176Z,73.37
2018-05-15T19:27:22.795Z,73.37
2018-05-15T19:29:50.439Z,73.55
2018-05-15T19:32:18.062Z,73.59
2018-05-15T19:34:51.439Z,73.99
2018-05-15T19:37:19.059Z,74.15
2018-05-15T19:39:46.694Z,74.32
2018-05-15T19:42:14.310Z,74.46
2018-05-15T19:44:42.019Z,74.45
2018-05-15T19:47:09.678Z,74.12
2018-05-15T19:49:37.301Z,74.27
2018-05-15T19:52:05.046Z,73.74
2018-05-15T19:54:32.646Z,73.97
2018-05-15T19:57:00.328Z,74.34
2018-05-15T19:59:27.946Z,74.49
2018-05-15T20:01:55.672Z,74.53
2018-05-15T20:04:23.226Z,74.77
2018-05-15T20:06:50.863Z,74.73
2018-05-15T20:09:18.536Z,74.73
2018-05-15T20:11:46.207Z,74.89
2018-05-15T20:14:13.863Z,74.92
2018-05-15T20:16:41.528Z,74.91
2018-05-15T20:19:09.143Z,74.83
2018-05-15T20:21:36.779Z,74.80
2018-05-15T20:24:04.410Z,74.86
2018-05-15T20:26:32.074Z,74.87
2018-05-15T20:28:59.735Z,74.74
2018-05-15T20:31:27.357Z,74.88
2018-05-15T20:33:55.058Z,74.80
2018-05-15T20:36:22.703Z,74.98
2018-05-15T20:38:50.321Z,75.07
2018-05-15T20:41:17.959Z,75.42
2018-05-15T20:43:45.578Z,75.57
2018-05-15T20:46:13.579Z,75.63
2018-05-15T20:48:41.198Z,75.72
2018-05-15T20:51:08.842Z,75.72
2018-05-15T20:53:36.467Z,75.79
2018-05-15T20:56:04.231Z,75.80
2018-05-15T20:58:31.842Z,75.81
2018-05-15T21:00:59.454Z,75.95
2018-05-15T21:03:27.095Z,76.01
2018-05-15T21:05:54.775Z,76.18
2018-05-15T21:08:22.419Z,76.30
2018-05-15T21:10:50.040Z,76.44
2018-05-15T21:13:17.682Z,76.46
2018-05-15T21:15:45.294Z,76.60
2018-05-15T21:18:12.991Z,76.68
2018-05-15T21:20:40.650Z,76.61
2018-05-15T21:23:08.315Z,76.70
2018-05-15T21:25:36.067Z,76.83
2018-05-15T21:28:03.702Z,76.92
2018-05-15T21:30:31.315Z,77.11
2018-05-15T21:32:59.062Z,77.32
2018-05-15T21:35:26.731Z,77.36
2018-05-15T21:37:54.369Z,77.40
2018-05-15T21:40:22.059Z,77.46
2018-05-15T21:42:49.694Z,77.47
2018-05-15T21:45:17.376Z,77.43
2018-05-15T21:47:45.019Z,77.24
2018-05-15T21:50:12.635Z,77.08
2018-05-15T21:52:40.273Z,77.07
2018-05-15T21:55:07.912Z,77.17
2018-05-15T21:57:35.576Z,77.15
2018-05-15T22:00:03.192Z,77.33
2018-05-15T22:02:30.830Z,77.49
2018-05-15T22:04:58.452Z,77.53
2018-05-15T22:07:26.094Z,77.60
2018-05-15T22:09:53.800Z,77.65
2018-05-15T22:12:33.111Z,77.92
2018-05-15T22:15:12.570Z,78.03
2018-05-15T22:17:51.944Z,78.19
2018-05-15T22:20:31.512Z,78.30
2018-05-15T22:22:58.571Z,78.39
2018-05-15T22:25:26.191Z,78.38
2018-05-15T22:27:53.846Z,78.57
2018-05-15T22:30:21.462Z,78.52
2018-05-15T22:32:49.078Z,78.61
2018-05-15T22:35:16.718Z,78.74
2018-05-15T22:37:44.367Z,78.80
2018-05-15T22:40:12.034Z,78.87
2018-05-15T22:42:39.659Z,79.06
2018-05-15T22:45:07.354Z,79.18
2018-05-15T22:47:34.968Z,79.40
2018-05-15T22:50:02.607Z,79.46
2018-05-15T22:52:30.855Z,79.27
2018-05-15T22:54:58.496Z,79.31
2018-05-15T22:57:26.114Z,79.20
2018-05-15T22:59:53.842Z,79.27
2018-05-15T23:02:21.460Z,79.39
2018-05-15T23:04:49.098Z,79.38
2018-05-15T23:07:16.718Z,79.44
2018-05-15T23:09:44.392Z,79.48
2018-05-15T23:12:12.006Z,79.46
2018-05-15T23:14:39.647Z,79.39
2018-05-15T23:17:07.266Z,79.39
2018-05-15T23:19:34.936Z,79.37
2018-05-15T23:22:02.600Z,79.30
2018-05-15T23:24:30.252Z,79.40
2018-05-15T23:26:57.926Z,79.38
2018-05-15T23:29:25.705Z,79.25
2018-05-15T23:31:53.251Z,79.25
2018-05-15T23:34:20.925Z,79.29
2018-05-15T23:36:48.574Z,79.34
2018-05-15T23:39:16.188Z,79.42
2018-05-15T23:41:43.839Z,79.43
2018-05-15T23:44:11.459Z,79.37
2018-05-15T23:46:39.123Z,79.38
2018-05-15T23:49:06.743Z,79.32
2018-05-15T23:51:34.447Z,79.39
2018-05-15T23:54:02.106Z,79.24
2018-05-15T23:56:29.747Z,79.33
2018-05-15T23:58:57.366Z,79.36
